Yosemite National Park, CA

11:40 AM PDT on September 29, 2016 (GMT -0700)
Mariposa Pines | | Change Station

Elev 3799 ft 37.59 °N, 119.85 °W | Updated 4 seconds ago

Clear
Clear
75.0 °F
Feels Like 77 °F
N
0.0
Wind Variable Wind from NE

Today
High -- | Low -- °F
--% Chance of Precip.
Yesterday
High -- | Low -- °F
Precip. -- in
Pressure 30.13 in
Visibility 10.0 miles
Clouds Clear
Heat Index 77 °F
Dew Point 44 °F
Humidity 34%
Rainfall 0.00 in
Snow Depth Not available.
6:52 AM 6:43 PM
Waning Crescent, 1% visible
METAR KO22 291815Z AUTO 19005KT 10SM CLR 29/04 A3013 RMK AO1
Pressure 30.13 in
Visibility 10.0 miles
Clouds Clear
Heat Index 77 °F
Dew Point 44 °F
Humidity 34%
Rainfall 0.00 in
Snow Depth Not available.
6:52 AM 6:43 PM
Waning Crescent, 1% visible
METAR KO22 291815Z AUTO 19005KT 10SM CLR 29/04 A3013 RMK AO1

10-Day Weather Forecast

Almanac

Astronomy

Sep. 29, 2016 Rise Set
Actual Time
Civil Twilight
Nautical Twilight
Astronomical Twilight
Moon
Length of Visible Light
Length of Day
Tomorrow will be .
, % of the Moon is Illuminated

Today's Extremes

State Highs State Lows

Community

WunderPhotos

Upload Photos

1,942,545 photos uploaded!

WunderBlog® & News

Nearby

Air Quality

  Air Quality AQ Index Pollutant
Not available.

Snow Depth

Station Depth Elevation

Earthquake Activity

City Distance Mag. Time & Date
Minimum magnitude displayed is 2.5.

Coastal Water Temperatures

Place Temperature

Stations

Nearby Weather Stations

Station Location Temp. Windchill Dew Point Humidity Wind Precip. Elev Updated Type
                   

Watches & Warnings

There are currently no watches in effect.